Time;durP1;ratioP1;P1;durP2;ratioP2;P2;SDS_P1;SDS_P2;PMS_P1;PMS_P2;Temp;Humidity;BMP_temperature;BMP_pressure;BME280_temperature;BME280_humidity;BME280_pressure;Samples;Min_cycle;Max_cycle;Signal;HPM_P1;HPM_P2
2023/08/29 00:00:39;;;;;;;3.20;2.90;;;16.30;99.90;;;;;;5046334;28;20186;-68
2023/08/29 00:03:05;;;;;;;4.20;3.22;;;15.90;99.90;;;;;;5046093;28;20185;-68
2023/08/29 00:05:31;;;;;;;3.27;2.93;;;15.90;99.90;;;;;;5044906;28;20525;-67
2023/08/29 00:07:56;;;;;;;3.87;3.00;;;15.80;99.90;;;;;;5046105;28;20483;-67
2023/08/29 00:10:22;;;;;;;4.20;3.30;;;15.90;99.90;;;;;;5045884;28;20185;-68
2023/08/29 00:12:48;;;;;;;3.25;2.95;;;16.00;99.90;;;;;;5045733;28;20474;-67
2023/08/29 00:15:14;;;;;;;3.07;2.87;;;16.00;99.90;;;;;;5044923;28;20752;-67
2023/08/29 00:17:39;;;;;;;3.50;3.20;;;16.00;99.90;;;;;;5046619;28;20298;-66
2023/08/29 00:20:05;;;;;;;3.10;2.90;;;16.30;99.90;;;;;;5037967;28;20174;-66
2023/08/29 00:22:31;;;;;;;3.67;2.50;;;16.00;99.90;;;;;;5046101;28;20208;-66
2023/08/29 00:24:58;;;;;;;3.60;2.80;;;15.90;99.90;;;;;;5046982;28;20182;-68
2023/08/29 00:27:24;;;;;;;3.38;3.08;;;15.90;99.90;;;;;;5043549;28;20207;-67
2023/08/29 00:29:49;;;;;;;3.33;3.03;;;16.00;99.90;;;;;;5043649;28;20193;-68
2023/08/29 00:32:15;;;;;;;3.60;3.30;;;16.00;99.90;;;;;;5046318;28;20562;-70
2023/08/29 00:34:41;;;;;;;3.23;3.03;;;16.00;99.90;;;;;;5046595;28;20471;-72
2023/08/29 00:37:06;;;;;;;3.63;3.33;;;16.00;99.90;;;;;;5045470;28;20220;-67
2023/08/29 00:39:32;;;;;;;4.20;3.20;;;16.00;99.90;;;;;;5045539;28;20189;-67
2023/08/29 00:41:58;;;;;;;3.10;2.90;;;16.00;99.90;;;;;;5042977;28;20181;-69
2023/08/29 00:44:23;;;;;;;3.50;3.20;;;15.90;99.90;;;;;;5044612;28;20200;-70
2023/08/29 00:46:50;;;;;;;3.60;3.30;;;15.90;99.90;;;;;;5045322;28;20679;-67
2023/08/29 00:49:23;;;;;;;3.70;3.40;;;15.90;99.90;;;;;;5043883;28;20198;-68
2023/08/29 00:51:49;;;;;;;3.50;3.30;;;15.80;99.90;;;;;;5045419;28;20182;-67
2023/08/29 00:54:17;;;;;;;3.40;3.10;;;16.00;99.90;;;;;;5045483;28;20205;-67
2023/08/29 00:56:44;;;;;;;3.20;3.00;;;15.80;99.90;;;;;;5044715;28;20582;-68
2023/08/29 00:59:10;;;;;;;3.25;3.05;;;16.00;99.90;;;;;;5045251;28;20177;-67
2023/08/29 01:01:36;;;;;;;4.53;3.60;;;15.80;99.90;;;;;;5044141;28;20196;-67
2023/08/29 01:04:02;;;;;;;3.40;3.20;;;15.80;99.90;;;;;;5043689;28;21052;-67
2023/08/29 01:06:30;;;;;;;3.75;3.47;;;15.60;99.90;;;;;;5045813;28;20884;-67
2023/08/29 01:08:57;;;;;;;3.17;2.97;;;16.00;99.90;;;;;;5044290;28;20666;-67
2023/08/29 01:11:46;;;;;;;3.50;3.20;;;15.90;99.90;;;;;;5043946;28;20679;-67
2023/08/29 01:14:38;;;;;;;4.28;3.88;;;15.90;99.90;;;;;;5045540;28;20213;-67
2023/08/29 01:17:25;;;;;;;3.70;3.30;;;16.20;99.90;;;;;;5044431;28;20201;-68
2023/08/29 01:19:52;;;;;;;3.72;3.42;;;15.90;99.90;;;;;;5050517;28;20188;-67
2023/08/29 01:22:27;;;;;;;3.13;2.92;;;15.90;99.90;;;;;;5044352;28;20193;-67
2023/08/29 01:25:00;;;;;;;3.92;3.10;;;16.00;99.90;;;;;;5045078;28;20189;-67
2023/08/29 01:27:26;;;;;;;4.10;3.80;;;16.10;99.90;;;;;;5038016;28;20247;-68
2023/08/29 01:29:53;;;;;;;3.70;3.40;;;16.00;99.90;;;;;;5044447;28;20193;-68
2023/08/29 01:32:19;;;;;;;3.80;3.50;;;16.00;99.90;;;;;;5049514;28;20188;-68
2023/08/29 01:34:45;;;;;;;4.07;3.60;;;16.50;99.90;;;;;;5047380;28;20213;-68
2023/08/29 01:37:11;;;;;;;3.15;2.95;;;16.10;99.90;;;;;;5049106;28;20690;-67
2023/08/29 01:39:38;;;;;;;3.57;3.27;;;15.80;99.90;;;;;;5048924;28;20185;-66
2023/08/29 01:42:04;;;;;;;3.25;3.05;;;15.90;99.90;;;;;;5048873;28;20561;-66
2023/08/29 01:44:30;;;;;;;3.60;3.40;;;16.10;99.90;;;;;;5049769;28;20189;-68
2023/08/29 01:46:55;;;;;;;3.77;3.50;;;16.20;99.90;;;;;;5044675;28;20460;-67
2023/08/29 01:49:21;;;;;;;3.90;3.60;;;16.00;99.90;;;;;;5046791;28;20523;-67
2023/08/29 01:51:47;;;;;;;3.70;3.40;;;16.00;99.90;;;;;;5043581;28;20221;-67
2023/08/29 01:54:13;;;;;;;4.00;3.57;;;16.10;99.90;;;;;;5052680;28;20202;-67
2023/08/29 01:56:39;;;;;;;4.13;3.80;;;16.00;99.90;;;;;;5046669;28;20456;-67
2023/08/29 01:59:06;;;;;;;4.20;3.90;;;15.90;99.90;;;;;;5047368;28;20177;-68
2023/08/29 02:01:32;;;;;;;3.63;3.42;;;15.90;99.90;;;;;;5046157;28;20190;-69
2023/08/29 02:03:58;;;;;;;3.87;3.60;;;15.90;99.90;;;;;;5047956;28;20197;-66
2023/08/29 02:06:24;;;;;;;4.00;3.70;;;16.00;99.90;;;;;;5043830;28;20940;-69
2023/08/29 02:08:49;;;;;;;4.43;4.03;;;16.00;99.90;;;;;;5047334;28;20227;-71
2023/08/29 02:11:15;;;;;;;3.80;3.60;;;15.80;99.90;;;;;;5047598;28;20191;-69
2023/08/29 02:13:41;;;;;;;4.10;3.80;;;15.70;99.90;;;;;;5048609;28;20213;-67
2023/08/29 02:16:06;;;;;;;4.10;3.63;;;15.80;99.90;;;;;;5049191;28;20216;-66
2023/08/29 02:18:32;;;;;;;3.87;3.43;;;15.60;99.90;;;;;;5044835;28;20296;-67
2023/08/29 02:20:57;;;;;;;3.50;3.30;;;15.70;99.90;;;;;;5047029;28;20174;-67
2023/08/29 02:23:23;;;;;;;4.50;4.00;;;15.80;99.90;;;;;;5047631;28;20189;-67
2023/08/29 02:26:00;;;;;;;6.53;3.73;;;15.80;99.90;;;;;;5046669;28;20181;-67
2023/08/29 02:28:25;;;;;;;6.93;4.00;;;16.00;99.90;;;;;;5047564;28;20221;-67
2023/08/29 02:30:51;;;;;;;4.43;3.67;;;15.90;99.90;;;;;;5048598;28;20300;-67
2023/08/29 02:33:16;;;;;;;4.47;4.07;;;15.80;99.90;;;;;;5048787;28;20173;-68
2023/08/29 02:35:42;;;;;;;4.40;3.90;;;15.80;99.90;;;;;;5047096;28;20248;-69
2023/08/29 02:38:08;;;;;;;4.10;3.80;;;16.00;99.90;;;;;;5047878;28;20203;-69
2023/08/29 02:40:34;;;;;;;3.97;3.70;;;15.90;99.90;;;;;;5047797;28;20177;-69
2023/08/29 02:42:59;;;;;;;4.33;3.73;;;15.90;99.90;;;;;;5045602;28;20190;-67
2023/08/29 02:45:25;;;;;;;3.80;3.50;;;16.00;99.90;;;;;;5049320;28;20193;-69
2023/08/29 02:47:50;;;;;;;4.10;3.70;;;15.80;99.90;;;;;;5043995;28;20202;-69
2023/08/29 02:50:16;;;;;;;8.00;3.50;;;15.90;99.90;;;;;;5047635;28;20624;-68
2023/08/29 02:52:42;;;;;;;4.37;4.07;;;16.00;99.90;;;;;;5047574;28;20261;-71
2023/08/29 02:55:07;;;;;;;4.23;3.87;;;15.90;99.90;;;;;;5056421;28;20232;-69
2023/08/29 02:57:33;;;;;;;3.77;3.47;;;16.00;99.90;;;;;;5048355;28;20240;-70
2023/08/29 02:59:59;;;;;;;4.63;4.33;;;16.00;99.90;;;;;;5049651;28;20436;-67
2023/08/29 03:02:24;;;;;;;4.20;3.90;;;16.00;99.90;;;;;;5046673;28;20196;-69
2023/08/29 03:04:50;;;;;;;4.60;4.20;;;16.10;99.90;;;;;;5045321;28;20201;-70
2023/08/29 03:07:15;;;;;;;3.97;3.67;;;16.20;99.90;;;;;;5046499;28;20209;-67
2023/08/29 03:09:41;;;;;;;4.90;4.47;;;16.10;99.90;;;;;;5045040;28;20193;-70
2023/08/29 03:12:07;;;;;;;4.30;3.90;;;16.10;99.90;;;;;;5047608;28;20190;-68
2023/08/29 03:14:32;;;;;;;3.40;3.20;;;15.90;99.90;;;;;;5043945;28;20296;-68
2023/08/29 03:16:58;;;;;;;4.20;3.40;;;16.10;99.90;;;;;;5045812;28;20456;-68
2023/08/29 03:19:24;;;;;;;4.57;3.50;;;16.10;99.90;;;;;;5043960;28;20239;-68
2023/08/29 03:21:49;;;;;;;4.13;3.83;;;16.30;99.90;;;;;;5045476;28;20197;-66
2023/08/29 03:24:15;;;;;;;3.80;3.60;;;16.10;99.90;;;;;;5044848;28;20202;-66
2023/08/29 03:26:40;;;;;;;4.47;4.17;;;16.20;99.90;;;;;;5044341;28;20302;-67
2023/08/29 03:29:06;;;;;;;4.30;3.80;;;16.10;99.90;;;;;;5044125;28;20200;-68
2023/08/29 03:31:32;;;;;;;4.67;4.27;;;16.10;99.90;;;;;;5047421;28;20284;-68
2023/08/29 03:33:57;;;;;;;4.57;4.20;;;16.10;99.90;;;;;;5047298;28;20208;-68
2023/08/29 03:36:23;;;;;;;5.20;4.70;;;15.90;99.90;;;;;;5046807;28;20178;-67
2023/08/29 03:38:48;;;;;;;4.40;4.10;;;16.10;99.90;;;;;;5044502;28;20173;-68
2023/08/29 03:41:14;;;;;;;7.10;4.50;;;15.90;99.90;;;;;;5044103;28;20177;-67
2023/08/29 03:43:40;;;;;;;5.30;4.80;;;16.10;99.90;;;;;;5047177;28;20213;-67
2023/08/29 03:46:07;;;;;;;4.07;3.77;;;16.10;99.90;;;;;;5047200;28;20182;-67
2023/08/29 03:48:34;;;;;;;4.80;4.40;;;16.10;99.90;;;;;;5042251;28;20209;-67
2023/08/29 03:51:05;;;;;;;5.20;4.80;;;16.20;99.90;;;;;;5046252;28;21744;-66
2023/08/29 03:53:37;;;;;;;4.50;4.20;;;16.10;99.90;;;;;;5046063;28;20773;-67
2023/08/29 03:56:04;;;;;;;4.20;3.90;;;15.90;99.90;;;;;;5045272;28;20189;-68
2023/08/29 03:58:30;;;;;;;4.47;4.13;;;16.10;99.90;;;;;;5044247;28;20722;-66
2023/08/29 04:00:57;;;;;;;4.88;4.45;;;15.90;99.90;;;;;;5045382;28;20197;-67
2023/08/29 04:03:23;;;;;;;4.90;4.50;;;16.00;99.90;;;;;;5045659;28;20272;-68
2023/08/29 04:05:51;;;;;;;4.70;4.40;;;15.90;99.90;;;;;;5045622;28;20587;-66
2023/08/29 04:08:17;;;;;;;4.72;4.32;;;16.00;99.90;;;;;;5043133;28;20304;-66
2023/08/29 04:10:42;;;;;;;4.60;4.30;;;16.20;99.90;;;;;;5046522;28;20264;-66
2023/08/29 04:13:10;;;;;;;4.30;3.90;;;16.10;99.90;;;;;;5046425;28;20553;-66
2023/08/29 04:15:36;;;;;;;4.93;4.53;;;16.20;99.90;;;;;;5043529;28;20484;-68
2023/08/29 04:18:03;;;;;;;4.97;4.57;;;16.00;99.90;;;;;;5044115;28;20216;-66
2023/08/29 04:20:30;;;;;;;5.53;5.00;;;16.10;99.90;;;;;;5045125;28;20197;-67
2023/08/29 04:22:57;;;;;;;5.70;5.22;;;16.00;99.90;;;;;;5043766;28;20256;-67
2023/08/29 04:25:26;;;;;;;5.40;5.00;;;15.20;99.90;;;;;;5044753;28;20193;-66
2023/08/29 04:27:55;;;;;;;5.80;5.30;;;16.10;99.90;;;;;;5044700;28;20265;-66
2023/08/29 04:30:21;;;;;;;6.00;5.50;;;16.00;99.90;;;;;;5045039;28;20194;-66
2023/08/29 04:32:50;;;;;;;6.17;5.57;;;16.30;99.90;;;;;;5044371;28;20189;-66
2023/08/29 04:35:16;;;;;;;5.03;4.63;;;15.80;99.90;;;;;;5046065;28;20686;-66
2023/08/29 04:37:48;;;;;;;5.27;4.87;;;16.20;99.90;;;;;;5043911;28;20209;-67
2023/08/29 04:40:16;;;;;;;5.95;5.45;;;16.10;99.90;;;;;;5039848;28;20508;-67
2023/08/29 04:42:42;;;;;;;6.90;6.30;;;16.20;99.90;;;;;;5043348;28;20623;-67
2023/08/29 04:45:08;;;;;;;6.93;6.27;;;16.10;99.90;;;;;;5041526;28;20189;-67
2023/08/29 04:47:34;;;;;;;6.78;6.10;;;16.10;99.90;;;;;;5040717;28;20573;-67
2023/08/29 04:50:00;;;;;;;7.45;6.85;;;15.90;99.90;;;;;;5042468;28;20193;-67
2023/08/29 04:52:26;;;;;;;7.90;7.13;;;16.50;99.90;;;;;;5054848;28;20197;-67
2023/08/29 04:54:53;;;;;;;8.00;7.40;;;16.00;99.90;;;;;;5029218;28;20236;-67
2023/08/29 04:57:18;;;;;;;6.95;6.35;;;15.70;99.90;;;;;;5038601;28;20280;-67
2023/08/29 04:59:44;;;;;;;7.13;6.53;;;15.90;99.90;;;;;;5041380;28;20322;-68
2023/08/29 05:02:10;;;;;;;6.20;5.70;;;15.90;99.90;;;;;;5040704;28;20243;-66
2023/08/29 05:04:35;;;;;;;7.33;6.63;;;15.90;99.90;;;;;;5040009;28;20280;-66
2023/08/29 05:07:01;;;;;;;7.70;7.10;;;15.90;99.90;;;;;;5044288;28;20201;-68
2023/08/29 05:09:27;;;;;;;6.93;6.40;;;16.10;99.90;;;;;;5044761;28;20280;-68
2023/08/29 05:11:53;;;;;;;7.22;6.63;;;16.00;99.90;;;;;;5039427;28;20194;-68
2023/08/29 05:14:18;;;;;;;7.67;6.97;;;15.90;99.90;;;;;;5040015;28;20213;-68
2023/08/29 05:16:44;;;;;;;8.50;7.73;;;15.90;99.90;;;;;;5041451;28;20201;-68
2023/08/29 05:19:10;;;;;;;7.93;7.23;;;16.00;99.90;;;;;;5043621;28;20773;-68
2023/08/29 05:21:36;;;;;;;7.53;6.83;;;16.00;99.90;;;;;;5044374;28;20432;-68
2023/08/29 05:24:03;;;;;;;7.70;7.10;;;15.80;99.90;;;;;;5044361;28;20189;-68
2023/08/29 05:26:28;;;;;;;6.65;6.15;;;16.00;99.90;;;;;;5044041;28;20228;-68
2023/08/29 05:28:54;;;;;;;8.47;7.80;;;16.00;99.90;;;;;;5043003;28;20216;-68
2023/08/29 05:31:19;;;;;;;10.03;9.10;;;16.10;99.90;;;;;;5044403;28;20186;-68
2023/08/29 05:33:45;;;;;;;10.70;9.53;;;15.80;99.90;;;;;;5044236;28;20339;-68
2023/08/29 05:36:11;;;;;;;8.70;7.90;;;15.90;99.90;;;;;;5042712;28;20715;-68
2023/08/29 05:38:36;;;;;;;8.40;7.60;;;16.00;99.90;;;;;;5042790;28;20265;-68
2023/08/29 05:41:03;;;;;;;7.87;7.27;;;16.00;99.90;;;;;;5035056;28;20900;-68
2023/08/29 05:43:29;;;;;;;8.57;7.30;;;15.90;99.90;;;;;;5042837;28;20196;-68
2023/08/29 05:45:55;;;;;;;10.43;7.70;;;16.10;99.90;;;;;;5044523;28;20822;-68
2023/08/29 05:48:21;;;;;;;8.50;7.80;;;15.70;99.90;;;;;;5043019;28;20313;-68
2023/08/29 05:50:51;;;;;;;7.90;7.10;;;15.80;99.90;;;;;;5043762;28;20273;-68
2023/08/29 05:53:19;;;;;;;8.32;7.22;;;16.10;99.90;;;;;;5045519;28;20436;-66
2023/08/29 05:55:46;;;;;;;8.23;7.53;;;16.10;99.90;;;;;;5040273;28;20459;-66
2023/08/29 05:58:11;;;;;;;8.18;7.57;;;16.30;99.90;;;;;;5044469;28;20610;-66
2023/08/29 06:00:37;;;;;;;8.97;8.13;;;16.00;99.90;;;;;;5045368;28;20178;-68
2023/08/29 06:03:04;;;;;;;7.90;7.20;;;16.10;99.90;;;;;;5043916;28;20469;-67
2023/08/29 06:05:31;;;;;;;8.98;8.07;;;16.00;99.90;;;;;;5045180;28;20224;-67
2023/08/29 06:08:00;;;;;;;10.27;9.38;;;16.00;99.90;;;;;;5042679;28;20209;-68
2023/08/29 06:10:26;;;;;;;8.75;8.05;;;15.70;99.90;;;;;;5042721;28;20181;-66
2023/08/29 06:12:52;;;;;;;9.00;8.10;;;15.90;99.90;;;;;;5042108;28;20236;-66
2023/08/29 06:15:17;;;;;;;11.83;10.77;;;15.80;99.90;;;;;;5044551;28;20566;-66
2023/08/29 06:17:43;;;;;;;9.00;8.17;;;15.60;99.90;;;;;;5045221;28;20235;-67
2023/08/29 06:20:11;;;;;;;8.60;7.90;;;15.80;99.90;;;;;;5048400;28;20268;-67
2023/08/29 06:22:37;;;;;;;9.52;8.10;;;16.10;99.90;;;;;;5045259;28;20639;-67
2023/08/29 06:25:04;;;;;;;9.48;8.68;;;15.60;99.90;;;;;;5043011;28;20734;-68
2023/08/29 06:27:30;;;;;;;8.90;8.20;;;15.90;99.90;;;;;;5049404;28;20686;-68
2023/08/29 06:29:55;;;;;;;9.50;8.70;;;15.90;99.90;;;;;;5049976;28;20178;-66
2023/08/29 06:32:21;;;;;;;9.37;8.50;;;15.80;99.90;;;;;;5049227;28;20205;-68
2023/08/29 06:34:47;;;;;;;9.90;9.10;;;15.70;99.90;;;;;;5050761;28;20293;-68
2023/08/29 06:37:13;;;;;;;8.10;7.50;;;15.90;99.90;;;;;;5048755;28;20459;-68
2023/08/29 06:39:39;;;;;;;8.20;7.50;;;15.90;99.90;;;;;;5051301;28;20647;-68
2023/08/29 06:42:05;;;;;;;8.90;8.00;;;15.90;99.90;;;;;;5045779;28;20188;-68
2023/08/29 06:44:31;;;;;;;8.80;8.10;;;16.00;99.90;;;;;;5048512;28;20909;-69
2023/08/29 06:46:56;;;;;;;9.37;8.47;;;16.10;99.90;;;;;;5052687;28;20220;-68
2023/08/29 06:49:22;;;;;;;9.70;8.60;;;15.70;99.90;;;;;;5046701;28;20190;-67
2023/08/29 06:51:49;;;;;;;9.70;8.90;;;15.50;99.90;;;;;;5048991;28;20226;-67
2023/08/29 06:54:15;;;;;;;10.25;9.35;;;15.60;99.90;;;;;;5052777;28;20297;-68
2023/08/29 06:56:41;;;;;;;10.63;9.73;;;15.50;99.90;;;;;;5046934;28;20201;-67
2023/08/29 06:59:07;;;;;;;11.23;10.10;;;15.70;99.90;;;;;;5047457;28;20459;-67
2023/08/29 07:01:33;;;;;;;10.40;9.60;;;15.90;99.90;;;;;;5047826;28;20497;-68
2023/08/29 07:04:00;;;;;;;10.57;9.67;;;15.60;99.90;;;;;;5043498;28;20345;-68
2023/08/29 07:06:25;;;;;;;10.90;9.90;;;15.70;99.90;;;;;;5047642;28;20510;-68
2023/08/29 07:08:51;;;;;;;8.90;8.10;;;15.60;99.90;;;;;;5046052;28;20204;-68
2023/08/29 07:11:16;;;;;;;10.10;9.27;;;16.10;99.90;;;;;;5045947;28;20272;-68
2023/08/29 07:13:42;;;;;;;10.17;9.27;;;15.70;99.90;;;;;;5046958;28;20213;-68
2023/08/29 07:16:07;;;;;;;10.37;9.43;;;15.10;99.90;;;;;;5047624;28;20650;-67
2023/08/29 07:18:33;;;;;;;10.23;9.27;;;15.80;99.90;;;;;;5046949;28;20280;-67
2023/08/29 07:20:59;;;;;;;9.30;8.60;;;15.70;99.90;;;;;;5047430;28;20184;-67
2023/08/29 07:23:25;;;;;;;10.47;9.50;;;15.80;99.90;;;;;;5047595;28;20185;-68
2023/08/29 07:25:51;;;;;;;9.55;8.75;;;15.70;99.90;;;;;;5046125;28;21013;-68
2023/08/29 07:28:16;;;;;;;8.97;8.23;;;15.60;99.90;;;;;;5043940;28;20228;-67
2023/08/29 07:30:47;;;;;;;12.47;9.50;;;15.80;99.90;;;;;;5045604;28;20177;-68
2023/08/29 07:33:16;;;;;;;9.13;8.43;;;15.90;99.90;;;;;;5046835;28;20178;-67
2023/08/29 07:35:43;;;;;;;9.27;8.50;;;16.20;99.90;;;;;;5044085;28;20752;-68
2023/08/29 07:38:09;;;;;;;10.70;9.70;;;15.90;99.90;;;;;;5046314;28;20194;-68
2023/08/29 07:40:35;;;;;;;9.68;8.88;;;16.10;99.90;;;;;;5045312;28;20182;-67
2023/08/29 07:43:06;;;;;;;9.17;8.30;;;15.80;99.90;;;;;;5047250;28;20235;-67
2023/08/29 07:45:33;;;;;;;9.70;8.77;;;15.80;99.90;;;;;;5042665;28;20511;-68
2023/08/29 07:47:59;;;;;;;9.60;8.75;;;16.00;99.90;;;;;;5039452;28;20264;-66
2023/08/29 07:50:25;;;;;;;11.85;10.88;;;15.90;99.90;;;;;;5058270;28;20190;-67
2023/08/29 07:52:51;;;;;;;10.30;9.32;;;16.00;99.90;;;;;;5046289;28;20263;-67
2023/08/29 07:55:17;;;;;;;10.53;9.63;;;16.00;99.90;;;;;;5045211;28;20667;-67
2023/08/29 07:57:43;;;;;;;8.70;8.00;;;16.10;99.90;;;;;;5045177;28;20260;-67
2023/08/29 08:00:10;;;;;;;9.63;8.63;;;15.80;99.90;;;;;;5047092;28;20183;-68
2023/08/29 08:02:39;;;;;;;8.98;8.18;;;16.20;99.90;;;;;;5046631;28;20253;-68
2023/08/29 08:05:16;;;;;;;10.30;9.35;;;16.30;99.90;;;;;;5078789;22;20235;-70
2023/08/29 08:07:44;;;;;;;8.48;7.78;;;16.20;99.90;;;;;;5045668;28;20689;-69
2023/08/29 08:10:11;;;;;;;10.75;9.75;;;16.20;99.90;;;;;;5039916;28;20582;-72
2023/08/29 08:12:38;;;;;;;9.93;8.93;;;16.20;99.90;;;;;;5049643;28;20173;-68
2023/08/29 08:15:05;;;;;;;9.55;8.65;;;16.40;99.90;;;;;;5048064;28;20240;-70
2023/08/29 08:17:32;;;;;;;9.98;9.20;;;16.30;99.90;;;;;;5045905;28;20217;-70
2023/08/29 08:19:57;;;;;;;10.50;9.63;;;16.30;99.90;;;;;;5043623;28;20190;-70
2023/08/29 08:22:23;;;;;;;10.50;9.60;;;16.30;99.90;;;;;;5048879;28;20185;-68
2023/08/29 08:24:49;;;;;;;10.53;9.63;;;16.20;99.90;;;;;;5046854;28;20622;-70
2023/08/29 08:27:15;;;;;;;10.63;9.63;;;16.10;99.90;;;;;;5036523;28;20488;-70
2023/08/29 08:29:42;;;;;;;11.90;10.90;;;16.40;99.90;;;;;;5045071;28;20447;-72
2023/08/29 08:32:07;;;;;;;9.93;9.00;;;16.90;99.90;;;;;;5047400;28;20276;-69
2023/08/29 08:34:33;;;;;;;10.90;10.10;;;16.30;99.90;;;;;;5044817;28;20744;-70
2023/08/29 08:36:59;;;;;;;10.50;9.60;;;16.20;99.90;;;;;;5045004;28;20282;-69
2023/08/29 08:39:24;;;;;;;11.27;10.17;;;16.20;99.90;;;;;;5045693;28;20249;-69
2023/08/29 08:41:51;;;;;;;11.03;10.13;;;16.30;99.90;;;;;;5043278;28;20272;-68
2023/08/29 08:44:19;;;;;;;11.75;10.68;;;16.30;99.90;;;;;;5045910;28;20186;-69
2023/08/29 08:46:45;;;;;;;11.27;10.45;;;16.30;99.90;;;;;;5045689;28;20204;-70
2023/08/29 08:49:11;;;;;;;12.07;11.00;;;16.80;99.90;;;;;;5043403;28;20185;-71
2023/08/29 08:51:37;;;;;;;11.60;10.70;;;16.50;99.90;;;;;;5046169;28;20444;-68
2023/08/29 08:54:06;;;;;;;11.93;10.83;;;16.10;99.90;;;;;;5046728;28;20674;-70
2023/08/29 08:56:33;;;;;;;14.13;12.75;;;16.20;99.90;;;;;;5042745;28;20463;-70
2023/08/29 08:58:59;;;;;;;14.45;13.25;;;16.10;99.90;;;;;;5047978;28;20590;-70
2023/08/29 09:01:26;;;;;;;12.88;11.80;;;16.20;99.90;;;;;;5048470;28;20248;-70
2023/08/29 09:03:51;;;;;;;12.70;11.60;;;16.20;99.90;;;;;;5044912;28;20186;-70
2023/08/29 09:06:17;;;;;;;11.80;10.83;;;16.20;99.90;;;;;;5046417;28;20189;-70
2023/08/29 09:08:43;;;;;;;14.10;13.00;;;16.30;99.90;;;;;;5043929;28;20254;-69
2023/08/29 09:11:08;;;;;;;12.47;11.47;;;16.40;99.90;;;;;;5043836;28;20192;-69
2023/08/29 09:13:34;;;;;;;11.77;10.87;;;16.50;99.90;;;;;;5040683;28;20181;-70
2023/08/29 09:16:01;;;;;;;12.23;11.20;;;16.70;99.90;;;;;;5048762;28;20178;-70
2023/08/29 09:18:28;;;;;;;11.50;10.50;;;17.00;99.90;;;;;;5043839;28;20456;-70
2023/08/29 09:20:57;;;;;;;11.38;10.48;;;16.50;99.90;;;;;;5044626;28;20566;-71
2023/08/29 09:23:24;;;;;;;11.55;10.45;;;16.90;99.90;;;;;;5044569;28;20203;-69
2023/08/29 09:25:55;;;;;;;11.30;10.40;;;16.70;99.90;;;;;;5040773;28;20638;-72
2023/08/29 09:28:22;;;;;;;11.95;10.88;;;16.90;99.90;;;;;;5046418;28;20218;-70
2023/08/29 09:30:48;;;;;;;10.02;9.25;;;16.80;99.90;;;;;;5044456;28;20308;-68
2023/08/29 09:33:20;;;;;;;11.10;10.20;;;16.60;99.90;;;;;;5050907;28;20189;-69
2023/08/29 09:35:46;;;;;;;11.35;10.45;;;16.50;99.90;;;;;;5042433;28;20209;-69
2023/08/29 09:38:12;;;;;;;10.27;9.57;;;16.80;99.90;;;;;;5048880;28;20201;-70
2023/08/29 09:40:45;;;;;;;11.27;10.30;;;17.00;99.90;;;;;;5044240;28;20448;-70
2023/08/29 09:43:13;;;;;;;10.10;9.18;;;16.80;99.90;;;;;;5044868;28;20552;-71
2023/08/29 09:45:38;;;;;;;11.52;10.52;;;16.90;99.90;;;;;;5045833;28;20228;-70
2023/08/29 09:48:08;;;;;;;11.53;10.63;;;16.60;99.90;;;;;;5043002;28;20254;-70
2023/08/29 09:50:35;;;;;;;12.05;11.00;;;16.60;99.90;;;;;;5044675;28;20242;-69
2023/08/29 09:53:02;;;;;;;11.68;10.68;;;16.90;99.90;;;;;;5048532;28;20193;-70
2023/08/29 09:55:35;;;;;;;11.70;10.70;;;16.90;99.90;;;;;;5048710;28;20270;-69
2023/08/29 09:58:05;;;;;;;12.30;11.40;;;16.60;99.90;;;;;;5047474;28;20491;-68
2023/08/29 10:00:31;;;;;;;10.65;9.75;;;16.50;99.90;;;;;;5047254;28;20199;-68
2023/08/29 10:02:58;;;;;;;12.23;11.13;;;16.70;99.90;;;;;;5047136;28;20189;-71
2023/08/29 10:05:33;;;;;;;12.25;11.25;;;16.60;99.90;;;;;;5050499;28;20198;-71
2023/08/29 10:08:05;;;;;;;13.30;12.20;;;16.50;99.90;;;;;;5046909;28;20566;-70
2023/08/29 10:10:31;;;;;;;13.65;12.55;;;16.70;99.90;;;;;;5048213;28;20281;-71
2023/08/29 10:12:58;;;;;;;13.67;12.57;;;16.60;99.90;;;;;;5048269;28;20735;-69
2023/08/29 10:15:24;;;;;;;13.38;12.20;;;16.50;99.90;;;;;;5049495;28;20471;-70
2023/08/29 10:17:50;;;;;;;14.00;12.73;;;16.70;99.90;;;;;;5051787;28;20206;-71
2023/08/29 10:20:18;;;;;;;14.43;13.23;;;16.50;99.90;;;;;;5044408;28;20403;-69
2023/08/29 10:22:48;;;;;;;14.18;13.07;;;16.80;99.90;;;;;;5049089;28;20268;-70
2023/08/29 10:25:14;;;;;;;13.32;12.25;;;17.00;99.90;;;;;;5046418;28;20287;-70
2023/08/29 10:27:41;;;;;;;15.32;13.50;;;16.90;99.90;;;;;;5044814;28;20205;-69
2023/08/29 10:30:07;;;;;;;13.73;12.57;;;16.90;99.90;;;;;;5044145;28;20212;-70
2023/08/29 10:32:35;;;;;;;13.80;12.63;;;17.00;99.90;;;;;;5049769;28;20190;-70
2023/08/29 10:35:01;;;;;;;13.63;12.52;;;17.00;99.90;;;;;;5044002;28;20296;-69
2023/08/29 10:37:28;;;;;;;10.40;9.50;;;17.40;99.90;;;;;;5048368;28;20376;-68
2023/08/29 10:40:11;;;;;;;10.60;9.73;;;17.80;99.90;;;;;;5050293;28;20257;-70
2023/08/29 10:43:00;;;;;;;10.90;10.00;;;17.90;99.90;;;;;;5047488;28;20272;-69
2023/08/29 10:45:54;;;;;;;10.15;9.25;;;18.10;99.90;;;;;;5048585;28;20185;-70
2023/08/29 10:48:22;;;;;;;11.15;10.30;;;18.00;99.90;;;;;;5048211;28;20213;-71
2023/08/29 10:51:08;;;;;;;11.20;10.20;;;18.00;99.90;;;;;;5048464;28;20194;-71
2023/08/29 10:54:05;;;;;;;11.65;10.65;;;18.10;99.90;;;;;;5052548;28;20356;-71
2023/08/29 10:56:42;;;;;;;9.90;9.10;;;17.80;99.90;;;;;;5045530;28;20332;-69
2023/08/29 10:59:28;;;;;;;11.15;10.35;;;18.10;99.90;;;;;;5047667;28;20190;-71
2023/08/29 11:02:25;;;;;;;10.25;9.45;;;17.80;99.90;;;;;;5045807;28;20181;-71
2023/08/29 11:05:03;;;;;;;11.35;10.48;;;17.90;99.90;;;;;;5045977;28;20189;-71
2023/08/29 11:07:30;;;;;;;13.10;12.07;;;17.50;99.90;;;;;;5050097;28;20251;-70
2023/08/29 11:10:14;;;;;;;12.68;11.68;;;17.40;99.90;;;;;;5046510;28;20190;-69
2023/08/29 11:13:09;;;;;;;12.85;11.60;;;17.20;99.90;;;;;;5049843;28;20209;-71
2023/08/29 11:15:49;;;;;;;12.65;11.60;;;17.10;99.90;;;;;;5047407;28;20469;-70
2023/08/29 11:18:34;;;;;;;13.18;11.98;;;17.10;99.90;;;;;;5044844;28;20674;-70
2023/08/29 11:21:08;;;;;;;13.18;11.95;;;17.00;99.90;;;;;;5050570;28;20193;-68
2023/08/29 11:23:37;;;;;;;13.18;12.07;;;17.10;99.90;;;;;;5050018;28;20181;-69
2023/08/29 11:26:03;;;;;;;13.90;12.75;;;17.00;99.90;;;;;;5046211;28;20654;-70
2023/08/29 11:28:32;;;;;;;13.95;12.75;;;17.00;99.90;;;;;;5050239;28;20197;-70
2023/08/29 11:30:58;;;;;;;14.07;12.98;;;17.10;99.90;;;;;;5046691;28;20186;-70
2023/08/29 11:33:31;;;;;;;13.90;12.50;;;17.40;99.90;;;;;;5049407;28;20660;-72
2023/08/29 11:35:56;;;;;;;12.85;11.75;;;17.40;99.90;;;;;;5044345;28;20619;-70
2023/08/29 11:38:30;;;;;;;12.60;11.47;;;17.60;99.90;;;;;;5046949;28;20197;-70
2023/08/29 11:41:00;;;;;;;12.70;11.60;;;17.90;99.90;;;;;;5043783;28;20178;-71
2023/08/29 11:43:27;;;;;;;12.63;11.52;;;18.00;99.90;;;;;;5046034;28;20672;-72
2023/08/29 11:45:57;;;;;;;14.82;13.27;;;17.90;99.90;;;;;;5045680;28;20251;-71
2023/08/29 11:48:27;;;;;;;15.40;14.18;;;18.10;99.90;;;;;;5042344;28;20567;-72
2023/08/29 11:50:54;;;;;;;13.32;12.27;;;18.40;99.90;;;;;;5045994;28;20186;-71
2023/08/29 11:53:36;;;;;;;12.73;11.73;;;18.50;99.90;;;;;;5047355;28;20186;-72
2023/08/29 11:56:04;;;;;;;13.00;12.00;;;18.60;99.90;;;;;;5045079;28;20192;-71
2023/08/29 11:58:31;;;;;;;12.75;11.73;;;18.40;99.90;;;;;;5041767;28;20205;-70
2023/08/29 12:00:57;;;;;;;13.90;12.50;;;18.30;99.90;;;;;;5047104;28;20226;-71
2023/08/29 12:03:27;;;;;;;12.80;11.55;;;18.50;99.90;;;;;;5040758;28;20275;-72
2023/08/29 12:05:57;;;;;;;13.55;12.25;;;18.50;99.90;;;;;;5041188;28;20242;-70
2023/08/29 12:08:45;;;;;;;13.15;12.02;;;18.10;99.90;;;;;;5047188;28;20534;-74
2023/08/29 12:11:13;;;;;;;13.02;12.02;;;18.20;99.90;;;;;;5045054;28;20258;-70
2023/08/29 12:13:43;;;;;;;13.70;12.63;;;18.20;99.90;;;;;;5048524;28;20707;-69
2023/08/29 12:16:17;;;;;;;14.55;13.45;;;18.20;99.90;;;;;;5045399;28;20583;-69
2023/08/29 12:18:43;;;;;;;14.68;13.48;;;18.10;99.90;;;;;;5044474;28;20847;-71
2023/08/29 12:21:14;;;;;;;15.50;14.30;;;17.80;99.90;;;;;;5046469;28;20272;-69
2023/08/29 12:23:42;;;;;;;15.07;13.93;;;17.70;99.90;;;;;;5046562;28;20975;-73
2023/08/29 12:26:08;;;;;;;14.00;12.90;;;17.70;99.90;;;;;;5037219;28;20219;-70
2023/08/29 12:28:33;;;;;;;13.77;12.37;;;17.80;99.90;;;;;;5044582;28;20197;-69
2023/08/29 12:30:59;;;;;;;12.90;11.90;;;17.60;99.90;;;;;;5045628;28;20192;-70
2023/08/29 12:33:25;;;;;;;13.10;12.00;;;17.30;99.90;;;;;;5045502;28;20706;-70
2023/08/29 12:35:50;;;;;;;15.43;14.00;;;17.10;99.90;;;;;;5045314;28;20236;-70
2023/08/29 12:38:16;;;;;;;15.03;13.57;;;17.20;99.90;;;;;;5044185;28;20198;-70
2023/08/29 12:40:44;;;;;;;14.93;13.73;;;17.00;99.90;;;;;;5044625;28;20188;-70
2023/08/29 12:43:11;;;;;;;15.80;14.40;;;17.10;99.90;;;;;;5045485;28;20428;-69